Time;durP1;ratioP1;P1;durP2;ratioP2;P2;SDS_P1;SDS_P2;PMS_P1;PMS_P2;Temp;Humidity;BMP_temperature;BMP_pressure;BME280_temperature;BME280_humidity;BME280_pressure;Samples;Min_cycle;Max_cycle;Signal;HPM_P1;HPM_P2
2024/01/17 00:00:21;;;;;;;128.65;122.07;;;;;;;;;;5074898;28;20430;-62
2024/01/17 00:02:49;;;;;;;133.75;126.82;;;;;;;;;;5079194;28;20524;-62
2024/01/17 00:05:16;;;;;;;129.55;122.93;;;;;;;;;;5067646;28;20461;-62
2024/01/17 00:07:43;;;;;;;128.02;121.43;;;;;;;;;;5064883;28;20432;-62
2024/01/17 00:10:10;;;;;;;127.78;121.22;;;;;;;;;;5070585;28;20424;-61
2024/01/17 00:12:38;;;;;;;131.13;124.38;;;;;;;;;;5072080;28;20479;-61
2024/01/17 00:15:08;;;;;;;139.77;132.73;;;;;;;;;;5068089;28;20427;-61
2024/01/17 00:17:35;;;;;;;131.38;124.65;;;;;;;;;;5067062;28;20455;-61
2024/01/17 00:20:03;;;;;;;127.53;120.93;;;;;;;;;;5070336;28;20422;-61
2024/01/17 00:22:30;;;;;;;129.65;122.93;;;;;;;;;;5069309;28;22540;-61
2024/01/17 00:24:57;;;;;;;127.15;120.55;;;;;;;;;;5065359;28;20471;-61
2024/01/17 00:27:26;;;;;;;147.57;140.20;;;;;;;;;;5075710;28;20508;-61
2024/01/17 00:29:57;;;;;;;131.82;125.07;;;;;;;;;;5066982;28;20419;-61
2024/01/17 00:32:25;;;;;;;128.50;121.90;;;;;;;;;;5076316;28;20494;-61
2024/01/17 00:35:00;;;;;;;131.35;124.30;;;;;;;;;;5062470;28;20627;-61
2024/01/17 00:37:27;;;;;;;130.82;124.13;;;;;;;;;;5069214;28;20481;-61
2024/01/17 00:39:54;;;;;;;134.52;127.60;;;;;;;;;;5082397;28;20462;-61
2024/01/17 00:42:22;;;;;;;134.20;127.30;;;;;;;;;;5079341;28;20433;-61
2024/01/17 00:44:49;;;;;;;136.95;129.70;;;;;;;;;;5067017;28;20510;-61
2024/01/17 00:47:19;;;;;;;140.38;133.27;;;;;;;;;;5082279;28;20431;-61
2024/01/17 00:49:46;;;;;;;127.72;121.20;;;;;;;;;;5064973;28;20452;-61
2024/01/17 00:52:13;;;;;;;134.23;127.23;;;;;;;;;;5063194;28;20427;-61
2024/01/17 00:54:41;;;;;;;154.35;146.52;;;;;;;;;;5076131;28;20440;-61
2024/01/17 00:57:08;;;;;;;152.75;145.07;;;;;;;;;;5076778;28;20470;-61
2024/01/17 00:59:38;;;;;;;143.55;136.23;;;;;;;;;;5071377;28;20436;-61
2024/01/17 01:02:05;;;;;;;147.23;139.80;;;;;;;;;;5072462;28;20430;-61
2024/01/17 01:04:32;;;;;;;146.30;138.90;;;;;;;;;;5061656;28;20427;-61
2024/01/17 01:06:59;;;;;;;150.68;142.85;;;;;;;;;;5081483;28;20421;-61
2024/01/17 01:09:28;;;;;;;143.13;135.88;;;;;;;;;;5073374;28;20426;-61
2024/01/17 01:11:55;;;;;;;142.98;135.63;;;;;;;;;;5075551;28;20904;-61
2024/01/17 01:14:22;;;;;;;136.68;129.70;;;;;;;;;;5073232;28;20447;-61
2024/01/17 01:16:49;;;;;;;130.93;124.07;;;;;;;;;;5064996;28;20439;-61
2024/01/17 01:19:19;;;;;;;138.87;131.77;;;;;;;;;;5071746;28;20499;-61
2024/01/17 01:21:46;;;;;;;136.60;129.60;;;;;;;;;;5065945;28;20429;-61
2024/01/17 01:24:13;;;;;;;136.75;129.77;;;;;;;;;;5066131;28;20424;-61
2024/01/17 01:26:47;;;;;;;138.65;131.35;;;;;;;;;;5077765;28;20430;-61
2024/01/17 01:29:17;;;;;;;131.02;124.28;;;;;;;;;;5071831;28;20432;-61
2024/01/17 01:31:44;;;;;;;134.43;127.60;;;;;;;;;;5072417;28;20433;-61
2024/01/17 01:34:11;;;;;;;141.15;133.95;;;;;;;;;;5071175;28;20510;-61
2024/01/17 01:36:45;;;;;;;139.43;132.30;;;;;;;;;;5076389;28;20941;-61
2024/01/17 01:39:14;;;;;;;139.85;132.65;;;;;;;;;;5074815;28;20427;-61
2024/01/17 01:41:42;;;;;;;142.63;135.32;;;;;;;;;;5072839;28;20431;-61
2024/01/17 01:44:09;;;;;;;138.65;131.60;;;;;;;;;;5077243;28;20495;-61
2024/01/17 01:46:39;;;;;;;136.52;129.52;;;;;;;;;;5075474;28;20427;-60
2024/01/17 01:49:08;;;;;;;138.53;131.43;;;;;;;;;;5071297;28;20508;-62
2024/01/17 01:51:38;;;;;;;136.43;129.45;;;;;;;;;;5067574;28;20480;-61
2024/01/17 01:54:08;;;;;;;140.05;132.80;;;;;;;;;;5059996;28;20497;-61
2024/01/17 01:56:36;;;;;;;139.27;132.03;;;;;;;;;;5070950;28;20454;-61
2024/01/17 01:59:03;;;;;;;136.77;129.73;;;;;;;;;;5066789;28;20444;-61
2024/01/17 02:01:30;;;;;;;138.38;131.27;;;;;;;;;;5068439;28;20911;-61
2024/01/17 02:03:58;;;;;;;137.07;130.02;;;;;;;;;;5055236;28;20886;-61
2024/01/17 02:06:28;;;;;;;136.25;129.25;;;;;;;;;;5076719;28;20428;-61
2024/01/17 02:09:01;;;;;;;135.05;128.00;;;;;;;;;;5074070;28;20440;-61
2024/01/17 02:11:29;;;;;;;137.63;130.55;;;;;;;;;;5067433;28;20512;-61
2024/01/17 02:13:57;;;;;;;140.43;133.18;;;;;;;;;;5076331;28;20439;-61
2024/01/17 02:16:27;;;;;;;139.10;131.98;;;;;;;;;;5070063;28;20433;-61
2024/01/17 02:18:54;;;;;;;142.00;134.68;;;;;;;;;;5080416;28;20550;-61
2024/01/17 02:21:22;;;;;;;142.05;134.68;;;;;;;;;;5071659;28;20904;-61
2024/01/17 02:23:54;;;;;;;142.30;134.98;;;;;;;;;;5072121;28;20434;-61
2024/01/17 02:26:22;;;;;;;138.63;131.45;;;;;;;;;;5072286;28;20460;-59
2024/01/17 02:28:49;;;;;;;140.10;132.88;;;;;;;;;;5076271;28;20967;-60
2024/01/17 02:31:16;;;;;;;140.57;133.40;;;;;;;;;;5071998;28;20431;-59
2024/01/17 02:33:44;;;;;;;136.93;129.82;;;;;;;;;;5085961;28;20445;-60
2024/01/17 02:36:14;;;;;;;136.18;129.13;;;;;;;;;;5076304;28;20424;-60
2024/01/17 02:38:41;;;;;;;138.43;131.27;;;;;;;;;;5067911;28;20622;-60
2024/01/17 02:41:09;;;;;;;136.23;129.20;;;;;;;;;;5077399;28;20769;-60
2024/01/17 02:43:36;;;;;;;138.18;131.05;;;;;;;;;;5064993;28;20438;-60
2024/01/17 02:46:03;;;;;;;140.80;133.45;;;;;;;;;;5073801;28;20439;-60
2024/01/17 02:48:30;;;;;;;118.95;112.68;;;;;;;;;;5084412;28;20945;-60
2024/01/17 02:51:01;;;;;;;116.15;109.93;;;;;;;;;;5068296;28;20439;-60
2024/01/17 02:53:28;;;;;;;134.25;127.30;;;;;;;;;;5069714;28;20431;-60
2024/01/17 02:55:56;;;;;;;137.68;130.60;;;;;;;;;;5071886;28;20434;-60
2024/01/17 02:58:23;;;;;;;140.02;132.77;;;;;;;;;;5076219;28;20421;-60
2024/01/17 03:00:50;;;;;;;142.57;135.23;;;;;;;;;;5077220;28;20498;-60
2024/01/17 03:03:18;;;;;;;144.55;137.10;;;;;;;;;;5065791;28;20466;-60
2024/01/17 03:05:45;;;;;;;145.93;138.38;;;;;;;;;;5073394;28;20431;-60
2024/01/17 03:08:12;;;;;;;133.30;126.33;;;;;;;;;;5073866;28;20469;-60
2024/01/17 03:10:39;;;;;;;127.22;120.57;;;;;;;;;;5083368;28;20433;-60
2024/01/17 03:13:08;;;;;;;137.63;130.43;;;;;;;;;;5068273;28;20481;-60
2024/01/17 03:15:37;;;;;;;139.40;132.23;;;;;;;;;;5068732;28;20763;-60
2024/01/17 03:18:08;;;;;;;146.23;138.73;;;;;;;;;;5068087;28;20423;-60
2024/01/17 03:20:38;;;;;;;136.77;129.75;;;;;;;;;;5075936;28;20445;-60
2024/01/17 03:23:08;;;;;;;141.60;134.27;;;;;;;;;;5074318;28;20439;-60
2024/01/17 03:25:38;;;;;;;129.18;122.47;;;;;;;;;;5072232;28;20434;-60
2024/01/17 03:28:05;;;;;;;112.22;106.15;;;;;;;;;;5073636;28;20426;-60
2024/01/17 03:30:34;;;;;;;118.35;112.07;;;;;;;;;;5080257;28;20487;-60
2024/01/17 03:33:01;;;;;;;114.45;108.32;;;;;;;;;;5069742;28;20430;-60
2024/01/17 03:35:28;;;;;;;125.88;119.18;;;;;;;;;;5072898;28;20862;-60
2024/01/17 03:37:58;;;;;;;139.25;131.98;;;;;;;;;;5063580;28;20906;-60
2024/01/17 03:40:28;;;;;;;130.05;123.25;;;;;;;;;;5075802;28;20457;-60
2024/01/17 03:42:57;;;;;;;129.18;122.35;;;;;;;;;;5066992;28;20437;-60
2024/01/17 03:45:25;;;;;;;128.82;122.13;;;;;;;;;;5073139;28;20435;-60
2024/01/17 03:47:52;;;;;;;129.17;122.40;;;;;;;;;;5073222;28;20429;-60
2024/01/17 03:50:19;;;;;;;122.18;115.68;;;;;;;;;;5077976;28;20559;-60
2024/01/17 03:52:46;;;;;;;113.47;107.43;;;;;;;;;;5069031;28;20424;-60
2024/01/17 03:55:20;;;;;;;114.18;107.78;;;;;;;;;;5065221;28;20423;-60
2024/01/17 03:57:47;;;;;;;128.63;121.87;;;;;;;;;;5076399;28;20514;-60
2024/01/17 04:00:15;;;;;;;133.73;126.70;;;;;;;;;;5081825;28;20983;-59
2024/01/17 04:02:42;;;;;;;132.52;125.47;;;;;;;;;;5064260;28;20832;-60
2024/01/17 04:05:09;;;;;;;141.00;133.65;;;;;;;;;;5072231;28;20498;-60
2024/01/17 04:07:37;;;;;;;146.23;138.77;;;;;;;;;;5068366;28;20486;-60
2024/01/17 04:10:05;;;;;;;123.20;116.72;;;;;;;;;;5070295;28;20431;-60
2024/01/17 04:12:32;;;;;;;134.38;127.38;;;;;;;;;;5070255;28;20430;-60
2024/01/17 04:15:06;;;;;;;122.55;115.95;;;;;;;;;;5070735;28;20997;-59
2024/01/17 04:17:33;;;;;;;137.70;130.43;;;;;;;;;;5064715;28;20423;-59
2024/01/17 04:20:05;;;;;;;137.07;130.02;;;;;;;;;;5073575;28;20489;-59
2024/01/17 04:22:34;;;;;;;122.68;116.18;;;;;;;;;;5080685;28;20455;-59
2024/01/17 04:25:04;;;;;;;117.40;111.20;;;;;;;;;;5053759;28;20473;-59
2024/01/17 04:27:34;;;;;;;137.25;130.10;;;;;;;;;;5069397;28;20520;-59
2024/01/17 04:30:02;;;;;;;119.60;113.15;;;;;;;;;;5075018;28;20427;-59
2024/01/17 04:32:29;;;;;;;140.00;132.80;;;;;;;;;;5074286;28;20428;-60
2024/01/17 04:34:57;;;;;;;131.93;125.03;;;;;;;;;;5070787;28;20504;-59
2024/01/17 04:37:24;;;;;;;140.95;133.75;;;;;;;;;;5074064;28;20429;-60
2024/01/17 04:39:51;;;;;;;133.10;126.20;;;;;;;;;;5096701;28;20493;-60
2024/01/17 04:42:19;;;;;;;149.52;141.88;;;;;;;;;;5064463;28;20818;-60
2024/01/17 04:44:46;;;;;;;148.23;140.57;;;;;;;;;;5075892;28;20448;-59
2024/01/17 04:47:14;;;;;;;146.55;138.98;;;;;;;;;;5073075;28;20427;-60
2024/01/17 04:49:43;;;;;;;134.93;127.93;;;;;;;;;;5079304;28;20427;-60
2024/01/17 04:52:15;;;;;;;126.03;119.45;;;;;;;;;;5065149;28;20470;-60
2024/01/17 04:54:43;;;;;;;125.05;118.50;;;;;;;;;;5066779;28;20434;-60
2024/01/17 04:57:10;;;;;;;117.23;110.93;;;;;;;;;;5071041;28;20919;-60
2024/01/17 04:59:40;;;;;;;125.55;119.05;;;;;;;;;;5075309;28;20431;-59
2024/01/17 05:02:07;;;;;;;119.33;113.00;;;;;;;;;;5071372;28;20431;-59
2024/01/17 05:04:41;;;;;;;100.68;95.13;;;;;;;;;;5071839;28;20431;-60
2024/01/17 05:07:08;;;;;;;105.60;99.87;;;;;;;;;;5082936;28;20489;-59
2024/01/17 05:09:36;;;;;;;115.78;109.47;;;;;;;;;;5084986;28;20947;-59
2024/01/17 05:12:03;;;;;;;117.97;111.70;;;;;;;;;;5078027;28;20466;-59
2024/01/17 05:14:30;;;;;;;122.60;116.07;;;;;;;;;;5079299;28;20456;-60
2024/01/17 05:16:58;;;;;;;113.72;107.55;;;;;;;;;;5085087;28;20421;-59
2024/01/17 05:19:25;;;;;;;114.03;107.82;;;;;;;;;;5063647;28;20431;-59
2024/01/17 05:21:52;;;;;;;105.22;99.45;;;;;;;;;;5083397;28;20433;-59
2024/01/17 05:24:20;;;;;;;112.22;106.13;;;;;;;;;;5083932;28;20541;-59
2024/01/17 05:26:47;;;;;;;113.05;106.82;;;;;;;;;;5075918;28;20461;-60
2024/01/17 05:29:15;;;;;;;117.75;111.47;;;;;;;;;;5070665;28;20543;-59
2024/01/17 05:31:42;;;;;;;124.30;117.72;;;;;;;;;;5072898;28;20551;-60
2024/01/17 05:34:09;;;;;;;115.43;109.20;;;;;;;;;;5072717;28;20476;-60
2024/01/17 05:36:37;;;;;;;110.03;104.03;;;;;;;;;;5081669;28;20492;-59
2024/01/17 05:39:05;;;;;;;114.10;108.03;;;;;;;;;;5072321;28;20427;-59
2024/01/17 05:41:34;;;;;;;109.40;103.50;;;;;;;;;;5081440;28;20434;-60
2024/01/17 05:44:01;;;;;;;108.18;102.05;;;;;;;;;;5079644;28;20424;-60
2024/01/17 05:46:32;;;;;;;102.47;96.75;;;;;;;;;;5067755;28;20428;-59
2024/01/17 05:49:02;;;;;;;114.40;108.20;;;;;;;;;;5077341;28;20428;-59
2024/01/17 05:51:30;;;;;;;121.47;115.03;;;;;;;;;;5077842;28;20431;-59
2024/01/17 05:53:58;;;;;;;119.77;113.40;;;;;;;;;;5069026;28;20924;-59
2024/01/17 05:56:25;;;;;;;121.05;114.63;;;;;;;;;;5061077;28;20456;-60
2024/01/17 05:58:52;;;;;;;122.68;116.10;;;;;;;;;;5070042;28;20455;-60
2024/01/17 06:01:21;;;;;;;119.85;113.50;;;;;;;;;;5069991;28;20427;-59
2024/01/17 06:03:48;;;;;;;117.65;111.05;;;;;;;;;;5069495;28;20427;-59
2024/01/17 06:06:17;;;;;;;117.43;111.18;;;;;;;;;;5070261;28;20777;-60
2024/01/17 06:08:44;;;;;;;121.82;115.40;;;;;;;;;;5064635;28;20433;-59
2024/01/17 06:11:12;;;;;;;113.88;107.65;;;;;;;;;;5068189;28;20434;-59
2024/01/17 06:13:39;;;;;;;125.45;118.68;;;;;;;;;;5066213;28;20439;-60
2024/01/17 06:16:06;;;;;;;93.53;88.57;;;;;;;;;;5071021;28;20943;-60
2024/01/17 06:18:33;;;;;;;91.20;86.32;;;;;;;;;;5077390;28;20459;-59
2024/01/17 06:21:01;;;;;;;83.82;79.40;;;;;;;;;;5063225;28;20419;-59
2024/01/17 06:23:29;;;;;;;98.13;92.93;;;;;;;;;;5071436;28;20428;-59
2024/01/17 06:25:57;;;;;;;81.07;76.72;;;;;;;;;;5068719;28;20486;-59
2024/01/17 06:28:24;;;;;;;113.32;107.32;;;;;;;;;;5081029;28;20932;-59
2024/01/17 06:30:51;;;;;;;123.10;116.78;;;;;;;;;;5077915;28;20518;-59
2024/01/17 06:33:18;;;;;;;119.47;113.27;;;;;;;;;;5067762;28;20432;-59
2024/01/17 06:35:49;;;;;;;88.28;83.35;;;;;;;;;;5077964;28;20429;-59
2024/01/17 06:38:20;;;;;;;108.55;102.95;;;;;;;;;;5061446;28;20501;-59
2024/01/17 06:40:47;;;;;;;108.88;103.28;;;;;;;;;;5070653;28;20427;-60
2024/01/17 06:43:17;;;;;;;117.35;111.25;;;;;;;;;;5077218;28;20954;-59
2024/01/17 06:45:44;;;;;;;101.88;96.57;;;;;;;;;;5087419;28;20421;-59
2024/01/17 06:48:11;;;;;;;92.78;87.90;;;;;;;;;;5088009;28;20439;-59
2024/01/17 06:50:39;;;;;;;102.30;96.97;;;;;;;;;;5068205;28;20454;-59
2024/01/17 06:53:06;;;;;;;122.20;115.90;;;;;;;;;;5068632;28;20427;-60
2024/01/17 06:55:33;;;;;;;132.05;125.35;;;;;;;;;;5067859;28;21064;-59
2024/01/17 06:58:00;;;;;;;142.87;135.50;;;;;;;;;;5067488;28;20427;-59
2024/01/17 07:00:28;;;;;;;143.93;136.52;;;;;;;;;;5068257;28;20451;-60
2024/01/17 07:03:03;;;;;;;149.48;141.88;;;;;;;;;;5066371;28;20884;-59
2024/01/17 07:05:30;;;;;;;153.43;145.63;;;;;;;;;;5053504;28;20557;-60
2024/01/17 07:07:57;;;;;;;152.75;145.05;;;;;;;;;;5068404;28;20433;-60
2024/01/17 07:10:25;;;;;;;86.47;81.97;;;;;;;;;;5073130;28;20454;-60
2024/01/17 07:12:52;;;;;;;111.20;105.47;;;;;;;;;;5067150;28;20427;-59
2024/01/17 07:15:19;;;;;;;108.22;102.65;;;;;;;;;;5064643;28;20505;-60
2024/01/17 07:17:46;;;;;;;102.90;97.50;;;;;;;;;;5063913;28;20425;-59
2024/01/17 07:20:14;;;;;;;118.63;112.50;;;;;;;;;;5060380;28;20439;-60
2024/01/17 07:22:44;;;;;;;120.78;114.57;;;;;;;;;;5065705;28;20812;-60
2024/01/17 07:25:13;;;;;;;120.22;114.03;;;;;;;;;;5068877;28;20434;-59
2024/01/17 07:27:41;;;;;;;130.27;123.57;;;;;;;;;;5069196;28;20436;-59
2024/01/17 07:30:08;;;;;;;134.80;127.80;;;;;;;;;;5071823;28;20435;-60
2024/01/17 07:32:36;;;;;;;139.35;132.15;;;;;;;;;;5063245;28;20429;-59
2024/01/17 07:35:03;;;;;;;135.48;128.48;;;;;;;;;;5065335;28;20435;-60
2024/01/17 07:37:36;;;;;;;148.82;140.70;;;;;;;;;;5068475;28;20477;-59
2024/01/17 07:40:04;;;;;;;143.60;136.20;;;;;;;;;;5076706;28;20431;-59
2024/01/17 07:42:32;;;;;;;143.73;136.32;;;;;;;;;;5068867;28;20431;-59
2024/01/17 07:44:59;;;;;;;146.30;138.90;;;;;;;;;;5066877;28;20433;-59
2024/01/17 07:47:26;;;;;;;143.48;136.10;;;;;;;;;;5054886;28;20517;-59
2024/01/17 07:49:59;;;;;;;140.85;133.65;;;;;;;;;;5075549;28;20431;-60
2024/01/17 07:52:26;;;;;;;135.88;128.98;;;;;;;;;;5065217;28;20432;-59
2024/01/17 07:54:53;;;;;;;119.53;112.73;;;;;;;;;;5065247;28;20502;-60
2024/01/17 07:57:23;;;;;;;77.70;73.60;;;;;;;;;;5078471;28;20509;-59
2024/01/17 07:59:51;;;;;;;76.72;72.57;;;;;;;;;;5066629;28;20481;-60
2024/01/17 08:02:18;;;;;;;69.72;65.93;;;;;;;;;;5068098;28;20431;-60
2024/01/17 08:04:45;;;;;;;72.97;69.03;;;;;;;;;;5054717;28;20530;-59
2024/01/17 08:07:13;;;;;;;75.65;71.60;;;;;;;;;;5064023;28;20427;-60
2024/01/17 08:09:44;;;;;;;86.03;81.03;;;;;;;;;;5064143;28;20500;-59
2024/01/17 08:12:11;;;;;;;91.85;87.05;;;;;;;;;;5066293;28;20427;-60
2024/01/17 08:14:38;;;;;;;104.75;99.25;;;;;;;;;;5068059;28;20471;-59
2024/01/17 08:17:08;;;;;;;107.35;101.53;;;;;;;;;;5070811;28;20424;-59
2024/01/17 08:19:36;;;;;;;113.97;108.00;;;;;;;;;;5070769;28;20466;-60
2024/01/17 08:22:04;;;;;;;127.53;120.85;;;;;;;;;;5065835;28;20424;-59
2024/01/17 08:24:31;;;;;;;137.50;130.43;;;;;;;;;;5078135;28;20431;-60
2024/01/17 08:26:58;;;;;;;138.43;131.30;;;;;;;;;;5067901;28;20470;-59
2024/01/17 08:29:28;;;;;;;124.72;118.25;;;;;;;;;;5064484;28;20439;-59
2024/01/17 08:31:55;;;;;;;132.35;125.40;;;;;;;;;;5074561;28;20421;-60
2024/01/17 08:34:23;;;;;;;132.38;125.50;;;;;;;;;;5069572;28;20495;-60
2024/01/17 08:36:51;;;;;;;135.20;128.30;;;;;;;;;;5083141;28;20862;-59
2024/01/17 08:39:20;;;;;;;133.50;126.63;;;;;;;;;;5059188;28;20500;-60
2024/01/17 08:41:47;;;;;;;140.48;132.88;;;;;;;;;;5069983;28;20431;-59
2024/01/17 08:44:18;;;;;;;150.13;142.43;;;;;;;;;;5078045;28;20491;-60
2024/01/17 08:46:46;;;;;;;147.48;139.98;;;;;;;;;;5066532;28;20424;-59
2024/01/17 08:49:14;;;;;;;148.40;140.88;;;;;;;;;;5075687;28;20446;-60
2024/01/17 08:51:42;;;;;;;143.23;135.90;;;;;;;;;;5077623;28;20431;-60
2024/01/17 08:54:10;;;;;;;148.60;140.83;;;;;;;;;;5076025;28;20439;-60
2024/01/17 08:56:38;;;;;;;125.50;119.03;;;;;;;;;;5073525;28;20434;-60
2024/01/17 08:59:05;;;;;;;128.70;121.72;;;;;;;;;;5061390;28;20435;-60
2024/01/17 09:01:32;;;;;;;128.57;121.97;;;;;;;;;;5064352;28;20439;-59
2024/01/17 09:04:00;;;;;;;98.57;93.43;;;;;;;;;;5059188;28;20464;-60
2024/01/17 09:06:27;;;;;;;86.88;82.22;;;;;;;;;;5064217;28;20821;-59
2024/01/17 09:08:54;;;;;;;99.07;93.88;;;;;;;;;;5063625;28;20430;-60
2024/01/17 09:11:21;;;;;;;108.28;102.57;;;;;;;;;;5068945;28;20438;-59
2024/01/17 09:13:48;;;;;;;77.55;73.40;;;;;;;;;;5062764;28;20437;-60
2024/01/17 09:16:16;;;;;;;105.43;99.93;;;;;;;;;;5060588;28;20528;-60
2024/01/17 09:18:44;;;;;;;98.03;92.93;;;;;;;;;;5079231;28;20453;-59
2024/01/17 09:21:11;;;;;;;111.72;105.93;;;;;;;;;;5068143;28;20440;-60
2024/01/17 09:23:39;;;;;;;122.65;116.35;;;;;;;;;;5050251;28;20804;-60
2024/01/17 09:26:06;;;;;;;119.38;113.13;;;;;;;;;;5053060;28;20423;-60
2024/01/17 09:28:33;;;;;;;116.55;110.53;;;;;;;;;;5064063;28;20507;-60
2024/01/17 09:31:00;;;;;;;126.95;120.45;;;;;;;;;;5059789;28;20465;-60
2024/01/17 09:33:27;;;;;;;131.18;124.28;;;;;;;;;;5072184;28;20508;-60
2024/01/17 09:35:55;;;;;;;123.13;116.75;;;;;;;;;;5075799;28;20768;-61
2024/01/17 09:38:32;;;;;;;133.07;126.07;;;;;;;;;;5068336;28;20438;-61
2024/01/17 09:41:04;;;;;;;119.15;113.03;;;;;;;;;;5058784;28;20957;-62
2024/01/17 09:43:31;;;;;;;119.80;113.70;;;;;;;;;;5065396;28;20463;-62
2024/01/17 09:46:02;;;;;;;134.07;126.20;;;;;;;;;;5070215;28;20539;-62
2024/01/17 09:48:29;;;;;;;137.07;130.03;;;;;;;;;;5063966;28;20430;-61
2024/01/17 09:51:00;;;;;;;132.45;125.57;;;;;;;;;;5073085;28;20427;-61
2024/01/17 09:53:29;;;;;;;128.30;121.60;;;;;;;;;;5068278;28;21105;-61
2024/01/17 09:55:59;;;;;;;128.90;120.60;;;;;;;;;;5066206;28;20440;-61
2024/01/17 09:58:35;;;;;;;126.53;120.03;;;;;;;;;;5066377;28;21495;-61
2024/01/17 10:01:05;;;;;;;126.63;119.65;;;;;;;;;;5074342;28;20514;-61
2024/01/17 10:03:37;;;;;;;129.90;123.17;;;;;;;;;;5057533;28;20477;-61
2024/01/17 10:06:05;;;;;;;137.48;130.50;;;;;;;;;;5062783;28;21073;-61
2024/01/17 10:08:33;;;;;;;124.13;117.75;;;;;;;;;;5068695;28;20439;-61
2024/01/17 10:11:00;;;;;;;130.83;124.13;;;;;;;;;;5055462;28;20514;-62
2024/01/17 10:13:28;;;;;;;124.30;117.97;;;;;;;;;;5063372;28;20438;-61
2024/01/17 10:15:55;;;;;;;130.82;124.15;;;;;;;;;;5069439;28;20439;-61
2024/01/17 10:18:22;;;;;;;134.00;127.15;;;;;;;;;;5068789;28;20427;-61
2024/01/17 10:20:49;;;;;;;131.90;125.17;;;;;;;;;;5069641;28;20429;-62
2024/01/17 10:23:17;;;;;;;143.38;135.98;;;;;;;;;;5051289;28;20528;-61
2024/01/17 10:25:44;;;;;;;157.45;148.10;;;;;;;;;;5063744;28;20433;-61
2024/01/17 10:28:11;;;;;;;134.90;128.00;;;;;;;;;;5062507;28;20423;-61
2024/01/17 10:30:39;;;;;;;139.98;132.68;;;;;;;;;;5070924;28;20533;-61
2024/01/17 10:33:07;;;;;;;132.63;125.18;;;;;;;;;;5065873;28;20441;-61
2024/01/17 10:35:35;;;;;;;139.75;132.55;;;;;;;;;;5076441;28;20430;-62
2024/01/17 10:38:05;;;;;;;141.68;134.30;;;;;;;;;;5065187;28;20446;-61
2024/01/17 10:40:33;;;;;;;134.23;127.35;;;;;;;;;;5069755;28;20528;-61
2024/01/17 10:43:12;;;;;;;140.40;133.23;;;;;;;;;;5063893;28;20460;-61
2024/01/17 10:45:39;;;;;;;123.90;117.45;;;;;;;;;;5074193;28;20788;-61
2024/01/17 10:48:10;;;;;;;114.80;108.80;;;;;;;;;;5072043;28;20537;-61
2024/01/17 10:50:37;;;;;;;101.07;95.88;;;;;;;;;;5068192;28;20439;-61
2024/01/17 10:53:06;;;;;;;88.28;83.63;;;;;;;;;;5080345;28;20802;-61
2024/01/17 10:55:37;;;;;;;87.75;83.10;;;;;;;;;;5069226;28;20427;-61
2024/01/17 10:58:10;;;;;;;105.85;100.38;;;;;;;;;;5075468;28;20431;-61
2024/01/17 11:00:39;;;;;;;112.45;106.18;;;;;;;;;;5059142;28;20980;-61
2024/01/17 11:03:09;;;;;;;79.78;75.57;;;;;;;;;;5065116;28;20424;-61
2024/01/17 11:05:49;;;;;;;103.55;98.15;;;;;;;;;;5073352;28;20440;-61
2024/01/17 11:08:17;;;;;;;100.27;94.97;;;;;;;;;;5069492;28;21102;-61
2024/01/17 11:10:45;;;;;;;98.82;93.70;;;;;;;;;;5069700;28;20917;-61
2024/01/17 11:13:14;;;;;;;94.75;89.80;;;;;;;;;;5068320;28;20439;-61
2024/01/17 11:15:44;;;;;;;105.90;99.88;;;;;;;;;;5065563;28;20449;-61
2024/01/17 11:18:12;;;;;;;110.68;104.88;;;;;;;;;;5075956;28;20487;-61
2024/01/17 11:20:41;;;;;;;109.15;103.45;;;;;;;;;;5065224;28;20439;-60
2024/01/17 11:23:09;;;;;;;106.55;100.35;;;;;;;;;;5061785;28;20424;-61
2024/01/17 11:25:45;;;;;;;107.00;100.90;;;;;;;;;;5058088;28;20520;-61
2024/01/17 11:28:19;;;;;;;118.43;111.93;;;;;;;;;;5078697;28;20431;-60
2024/01/17 11:30:49;;;;;;;118.20;112.20;;;;;;;;;;5076342;28;20796;-61
2024/01/17 11:33:16;;;;;;;124.50;117.95;;;;;;;;;;5059471;28;20568;-60
2024/01/17 11:35:46;;;;;;;120.70;114.10;;;;;;;;;;5060582;28;20431;-61
2024/01/17 11:38:23;;;;;;;119.20;112.93;;;;;;;;;;5061114;28;20423;-61
2024/01/17 11:40:51;;;;;;;117.90;111.70;;;;;;;;;;5059258;28;21033;-61
2024/01/17 11:43:18;;;;;;;116.05;110.05;;;;;;;;;;5069787;28;20438;-61
2024/01/17 11:45:50;;;;;;;116.90;110.53;;;;;;;;;;5064181;28;20918;-60
2024/01/17 11:48:18;;;;;;;104.65;99.15;;;;;;;;;;5062051;28;20430;-61
2024/01/17 11:51:04;;;;;;;113.68;107.47;;;;;;;;;;5060719;28;20439;-61
2024/01/17 11:53:33;;;;;;;109.95;104.28;;;;;;;;;;5065457;28;20801;-60
2024/01/17 11:56:04;;;;;;;131.45;124.68;;;;;;;;;;5061513;28;20501;-60
2024/01/17 11:58:41;;;;;;;119.55;113.45;;;;;;;;;;5060904;28;20471;-60
2024/01/17 12:01:17;;;;;;;128.05;121.45;;;;;;;;;;5055046;28;20439;-61
2024/01/17 12:03:46;;;;;;;129.68;122.97;;;;;;;;;;5059079;28;20547;-61
2024/01/17 12:06:14;;;;;;;132.45;125.68;;;;;;;;;;5058606;28;20435;-60
2024/01/17 12:08:42;;;;;;;120.45;114.25;;;;;;;;;;5060069;28;20798;-61
2024/01/17 12:11:12;;;;;;;121.25;114.75;;;;;;;;;;5065593;28;20518;-61
2024/01/17 12:13:39;;;;;;;122.63;116.20;;;;;;;;;;5064843;28;20428;-61
2024/01/17 12:16:07;;;;;;;120.20;113.93;;;;;;;;;;5066308;28;20494;-61
2024/01/17 12:18:35;;;;;;;133.40;126.40;;;;;;;;;;5069876;28;20431;-61
2024/01/17 12:21:04;;;;;;;135.32;128.45;;;;;;;;;;5085554;28;20429;-61
2024/01/17 12:23:32;;;;;;;125.53;117.72;;;;;;;;;;5064565;28;20506;-61
2024/01/17 12:26:00;;;;;;;128.38;121.47;;;;;;;;;;5063166;28;20428;-61
2024/01/17 12:28:28;;;;;;;137.50;130.38;;;;;;;;;;5068273;28;20425;-61
2024/01/17 12:31:01;;;;;;;131.38;124.63;;;;;;;;;;5067132;28;20521;-61
2024/01/17 12:33:35;;;;;;;127.40;120.82;;;;;;;;;;5069850;28;20431;-61
2024/01/17 12:36:06;;;;;;;124.43;118.03;;;;;;;;;;5065343;28;20905;-61
2024/01/17 12:38:35;;;;;;;136.25;129.35;;;;;;;;;;5075490;28;20997;-61
2024/01/17 12:41:07;;;;;;;137.93;130.75;;;;;;;;;;5067917;28;20426;-61
2024/01/17 12:43:35;;;;;;;158.23;150.20;;;;;;;;;;5073276;28;20879;-61
2024/01/17 12:46:03;;;;;;;141.00;133.93;;;;;;;;;;5069924;28;20459;-61
2024/01/17 12:48:30;;;;;;;128.93;122.25;;;;;;;;;;5075037;28;20423;-61
2024/01/17 12:50:59;;;;;;;140.77;133.60;;;;;;;;;;5083004;28;20425;-61
2024/01/17 12:53:28;;;;;;;136.18;129.07;;;;;;;;;;5067428;28;20445;-61
2024/01/17 12:55:55;;;;;;;142.02;134.77;;;;;;;;;;5083491;28;20506;-61
2024/01/17 12:58:23;;;;;;;159.23;150.82;;;;;;;;;;5068408;28;20427;-61
2024/01/17 13:00:50;;;;;;;147.82;140.07;;;;;;;;;;5064844;28;20455;-61
2024/01/17 13:03:18;;;;;;;136.80;129.85;;;;;;;;;;5069598;28;20440;-62
2024/01/17 13:06:03;;;;;;;67.13;63.42;;;;;;;;;;5074018;28;20431;-62
2024/01/17 13:08:30;;;;;;;66.03;62.03;;;;;;;;;;5065046;28;20461;-61
2024/01/17 13:10:58;;;;;;;54.53;51.17;;;;;;;;;;5086346;28;20440;-62
2024/01/17 13:13:29;;;;;;;71.57;67.40;;;;;;;;;;5078895;28;20443;-62
2024/01/17 13:15:56;;;;;;;70.80;66.50;;;;;;;;;;5077581;28;20425;-62
2024/01/17 13:18:28;;;;;;;84.03;79.40;;;;;;;;;;5068991;28;20480;-62
2024/01/17 13:21:09;;;;;;;52.93;49.70;;;;;;;;;;5078619;28;20897;-63
2024/01/17 13:23:36;;;;;;;79.82;75.32;;;;;;;;;;5078660;28;20512;-63
2024/01/17 13:26:04;;;;;;;88.93;84.00;;;;;;;;;;5063619;28;20435;-63
2024/01/17 13:28:31;;;;;;;99.22;93.70;;;;;;;;;;5062738;28;20439;-63
2024/01/17 13:31:03;;;;;;;81.82;77.38;;;;;;;;;;5067597;28;20880;-63
2024/01/17 13:33:31;;;;;;;72.13;68.28;;;;;;;;;;5076019;28;20437;-63
2024/01/17 13:35:59;;;;;;;60.58;57.22;;;;;;;;;;5077552;28;21139;-64
2024/01/17 13:38:27;;;;;;;86.75;81.95;;;;;;;;;;5079404;28;20427;-64
2024/01/17 13:40:54;;;;;;;78.22;73.93;;;;;;;;;;5071818;28;20497;-64
2024/01/17 13:43:24;;;;;;;79.65;75.35;;;;;;;;;;5075881;28;20437;-64
2024/01/17 13:45:52;;;;;;;84.72;79.97;;;;;;;;;;5077179;28;20490;-65
2024/01/17 13:48:19;;;;;;;88.32;83.55;;;;;;;;;;5072320;28;20501;-65
2024/01/17 13:50:47;;;;;;;95.55;90.47;;;;;;;;;;5070970;28;20984;-65
2024/01/17 13:53:28;;;;;;;83.72;79.18;;;;;;;;;;5073789;28;20418;-66
2024/01/17 13:56:05;;;;;;;82.95;78.47;;;;;;;;;;5065392;28;20465;-66
2024/01/17 13:58:33;;;;;;;98.38;93.18;;;;;;;;;;5064651;28;20541;-66
2024/01/17 14:01:04;;;;;;;91.30;86.38;;;;;;;;;;5075512;28;20528;-66
2024/01/17 14:03:33;;;;;;;89.40;84.38;;;;;;;;;;5070452;28;20457;-67